sensor_id;sensor_type;location;lat;lon;timestamp;pressure;altitude;pressure_sealevel;temperature;humidity
28626;BME280;18905;42.668;23.364;2023-03-12T00:00:44;94209.69;;;3.48;100.00
28626;BME280;18905;42.668;23.364;2023-03-12T00:03:09;94213.75;;;3.46;100.00
28626;BME280;18905;42.668;23.364;2023-03-12T00:05:42;94212.16;;;3.45;100.00
28626;BME280;18905;42.668;23.364;2023-03-12T00:08:09;94200.16;;;3.29;100.00
28626;BME280;18905;42.668;23.364;2023-03-12T00:10:37;94227.13;;;3.27;100.00
28626;BME280;18905;42.668;23.364;2023-03-12T00:13:03;94226.03;;;3.28;100.00
28626;BME280;18905;42.668;23.364;2023-03-12T00:15:28;94245.91;;;3.36;100.00
28626;BME280;18905;42.668;23.364;2023-03-12T00:17:54;94243.22;;;3.22;100.00
28626;BME280;18905;42.668;23.364;2023-03-12T00:20:19;94241.38;;;3.36;100.00
28626;BME280;18905;42.668;23.364;2023-03-12T00:22:46;94252.91;;;3.18;100.00
28626;BME280;18905;42.668;23.364;2023-03-12T00:25:14;94247.38;;;3.28;100.00
28626;BME280;18905;42.668;23.364;2023-03-12T00:27:40;94253.09;;;3.22;100.00
28626;BME280;18905;42.668;23.364;2023-03-12T00:30:07;94260.25;;;3.40;100.00
28626;BME280;18905;42.668;23.364;2023-03-12T00:32:34;94259.97;;;3.28;100.00
28626;BME280;18905;42.668;23.364;2023-03-12T00:34:59;94265.50;;;3.13;100.00
28626;BME280;18905;42.668;23.364;2023-03-12T00:37:25;94261.34;;;3.07;100.00
28626;BME280;18905;42.668;23.364;2023-03-12T00:39:50;94260.78;;;3.10;100.00
28626;BME280;18905;42.668;23.364;2023-03-12T00:42:17;94252.31;;;3.21;100.00
28626;BME280;18905;42.668;23.364;2023-03-12T00:44:42;94273.59;;;3.40;100.00
28626;BME280;18905;42.668;23.364;2023-03-12T00:47:09;94262.28;;;3.16;100.00
28626;BME280;18905;42.668;23.364;2023-03-12T00:49:35;94236.06;;;3.04;100.00
28626;BME280;18905;42.668;23.364;2023-03-12T00:52:01;94232.72;;;3.12;100.00
28626;BME280;18905;42.668;23.364;2023-03-12T00:54:27;94243.13;;;3.14;100.00
28626;BME280;18905;42.668;23.364;2023-03-12T00:56:52;94258.75;;;3.20;100.00
28626;BME280;18905;42.668;23.364;2023-03-12T00:59:17;94259.19;;;3.09;100.00
28626;BME280;18905;42.668;23.364;2023-03-12T01:01:43;94255.84;;;3.17;100.00
28626;BME280;18905;42.668;23.364;2023-03-12T01:04:09;94253.50;;;2.97;100.00
28626;BME280;18905;42.668;23.364;2023-03-12T01:06:35;94250.94;;;2.92;100.00
28626;BME280;18905;42.668;23.364;2023-03-12T01:09:02;94274.56;;;2.98;100.00
28626;BME280;18905;42.668;23.364;2023-03-12T01:11:29;94263.75;;;2.90;100.00
28626;BME280;18905;42.668;23.364;2023-03-12T01:13:57;94272.53;;;2.90;100.00
28626;BME280;18905;42.668;23.364;2023-03-12T01:16:22;94257.28;;;2.77;100.00
28626;BME280;18905;42.668;23.364;2023-03-12T01:18:52;94279.66;;;2.95;100.00
28626;BME280;18905;42.668;23.364;2023-03-12T01:21:18;94286.50;;;2.82;100.00
28626;BME280;18905;42.668;23.364;2023-03-12T01:23:43;94283.94;;;2.96;100.00
28626;BME280;18905;42.668;23.364;2023-03-12T01:26:09;94271.47;;;2.36;100.00
28626;BME280;18905;42.668;23.364;2023-03-12T01:28:34;94285.59;;;2.55;100.00
28626;BME280;18905;42.668;23.364;2023-03-12T01:31:06;94268.19;;;2.39;100.00
28626;BME280;18905;42.668;23.364;2023-03-12T01:33:31;94274.47;;;2.48;100.00
28626;BME280;18905;42.668;23.364;2023-03-12T01:35:56;94269.50;;;2.41;100.00
28626;BME280;18905;42.668;23.364;2023-03-12T01:38:22;94281.16;;;2.45;100.00
28626;BME280;18905;42.668;23.364;2023-03-12T01:40:47;94270.66;;;2.35;100.00
28626;BME280;18905;42.668;23.364;2023-03-12T01:43:30;94277.88;;;2.53;100.00
28626;BME280;18905;42.668;23.364;2023-03-12T01:48:46;94275.13;;;2.58;100.00
28626;BME280;18905;42.668;23.364;2023-03-12T01:51:15;94270.09;;;2.38;100.00
28626;BME280;18905;42.668;23.364;2023-03-12T01:53:44;94263.47;;;2.36;100.00
28626;BME280;18905;42.668;23.364;2023-03-12T01:56:11;94272.91;;;2.65;100.00
28626;BME280;18905;42.668;23.364;2023-03-12T01:58:39;94268.78;;;2.36;100.00
28626;BME280;18905;42.668;23.364;2023-03-12T02:01:07;94275.88;;;2.64;100.00
28626;BME280;18905;42.668;23.364;2023-03-12T02:03:33;94288.38;;;2.63;100.00
28626;BME280;18905;42.668;23.364;2023-03-12T02:06:03;94288.88;;;2.65;100.00
28626;BME280;18905;42.668;23.364;2023-03-12T02:08:34;94275.31;;;2.25;100.00
28626;BME280;18905;42.668;23.364;2023-03-12T02:11:01;94268.94;;;2.44;100.00
28626;BME280;18905;42.668;23.364;2023-03-12T02:13:26;94276.19;;;2.39;100.00
28626;BME280;18905;42.668;23.364;2023-03-12T02:15:52;94282.25;;;2.44;100.00
28626;BME280;18905;42.668;23.364;2023-03-12T02:18:19;94291.34;;;2.43;100.00
28626;BME280;18905;42.668;23.364;2023-03-12T02:20:53;94279.25;;;2.51;100.00
28626;BME280;18905;42.668;23.364;2023-03-12T02:26:14;94280.00;;;2.51;100.00
28626;BME280;18905;42.668;23.364;2023-03-12T02:28:41;94285.09;;;2.71;100.00
28626;BME280;18905;42.668;23.364;2023-03-12T02:31:12;94295.47;;;2.73;100.00
28626;BME280;18905;42.668;23.364;2023-03-12T02:33:37;94272.38;;;2.45;100.00
28626;BME280;18905;42.668;23.364;2023-03-12T02:36:03;94266.28;;;2.44;100.00
28626;BME280;18905;42.668;23.364;2023-03-12T02:43:45;94286.06;;;2.57;100.00
28626;BME280;18905;42.668;23.364;2023-03-12T02:46:12;94278.84;;;2.39;100.00
28626;BME280;18905;42.668;23.364;2023-03-12T02:48:38;94259.75;;;2.13;100.00
28626;BME280;18905;42.668;23.364;2023-03-12T02:51:04;94273.31;;;2.35;100.00
28626;BME280;18905;42.668;23.364;2023-03-12T02:53:30;94236.31;;;1.92;100.00
28626;BME280;18905;42.668;23.364;2023-03-12T02:55:55;94277.84;;;2.35;100.00
28626;BME280;18905;42.668;23.364;2023-03-12T02:58:21;94280.44;;;2.40;100.00
28626;BME280;18905;42.668;23.364;2023-03-12T03:00:46;94278.38;;;2.37;100.00
28626;BME280;18905;42.668;23.364;2023-03-12T03:03:13;94242.97;;;2.13;100.00
28626;BME280;18905;42.668;23.364;2023-03-12T03:05:38;94270.78;;;2.25;100.00
28626;BME280;18905;42.668;23.364;2023-03-12T03:08:04;94285.47;;;2.23;100.00
28626;BME280;18905;42.668;23.364;2023-03-12T03:10:30;94268.28;;;2.34;100.00
28626;BME280;18905;42.668;23.364;2023-03-12T03:12:55;94232.69;;;2.06;100.00
28626;BME280;18905;42.668;23.364;2023-03-12T03:15:22;94271.75;;;2.11;100.00
28626;BME280;18905;42.668;23.364;2023-03-12T03:17:47;94279.28;;;2.27;100.00
28626;BME280;18905;42.668;23.364;2023-03-12T03:20:13;94297.84;;;2.32;100.00
28626;BME280;18905;42.668;23.364;2023-03-12T03:22:39;94297.50;;;2.39;100.00
28626;BME280;18905;42.668;23.364;2023-03-12T03:25:06;94288.81;;;2.10;100.00
28626;BME280;18905;42.668;23.364;2023-03-12T03:27:32;94287.72;;;2.11;100.00
28626;BME280;18905;42.668;23.364;2023-03-12T03:29:57;94290.19;;;2.07;100.00
28626;BME280;18905;42.668;23.364;2023-03-12T03:32:23;94295.03;;;2.24;100.00
28626;BME280;18905;42.668;23.364;2023-03-12T03:34:48;94292.66;;;2.22;100.00
28626;BME280;18905;42.668;23.364;2023-03-12T03:37:13;94282.41;;;2.11;100.00
28626;BME280;18905;42.668;23.364;2023-03-12T03:39:39;94286.50;;;2.27;100.00
28626;BME280;18905;42.668;23.364;2023-03-12T03:42:04;94277.47;;;1.99;100.00
28626;BME280;18905;42.668;23.364;2023-03-12T03:44:30;94300.22;;;2.34;100.00
28626;BME280;18905;42.668;23.364;2023-03-12T03:46:55;94293.56;;;2.13;100.00
28626;BME280;18905;42.668;23.364;2023-03-12T03:49:21;94261.06;;;1.92;100.00
28626;BME280;18905;42.668;23.364;2023-03-12T03:51:47;94314.09;;;2.12;100.00
28626;BME280;18905;42.668;23.364;2023-03-12T03:54:14;94309.16;;;2.24;100.00
28626;BME280;18905;42.668;23.364;2023-03-12T03:56:40;94306.03;;;2.17;100.00
28626;BME280;18905;42.668;23.364;2023-03-12T03:59:05;94311.06;;;2.19;100.00
28626;BME280;18905;42.668;23.364;2023-03-12T04:01:31;94319.63;;;2.16;100.00
28626;BME280;18905;42.668;23.364;2023-03-12T04:03:57;94311.28;;;1.99;100.00
28626;BME280;18905;42.668;23.364;2023-03-12T04:06:23;94341.78;;;2.11;100.00
28626;BME280;18905;42.668;23.364;2023-03-12T04:08:49;94346.91;;;2.03;100.00
28626;BME280;18905;42.668;23.364;2023-03-12T04:11:16;94342.91;;;2.05;100.00
28626;BME280;18905;42.668;23.364;2023-03-12T04:13:43;94347.59;;;1.90;100.00
28626;BME280;18905;42.668;23.364;2023-03-12T04:16:09;94363.59;;;1.85;100.00
28626;BME280;18905;42.668;23.364;2023-03-12T04:18:34;94360.44;;;2.11;100.00
28626;BME280;18905;42.668;23.364;2023-03-12T04:21:04;94366.59;;;2.07;100.00
28626;BME280;18905;42.668;23.364;2023-03-12T04:23:30;94380.94;;;1.82;100.00
28626;BME280;18905;42.668;23.364;2023-03-12T04:25:56;94384.41;;;1.83;100.00
28626;BME280;18905;42.668;23.364;2023-03-12T04:28:21;94363.75;;;1.70;100.00
28626;BME280;18905;42.668;23.364;2023-03-12T04:31:04;94376.03;;;1.66;100.00
28626;BME280;18905;42.668;23.364;2023-03-12T04:33:33;94390.84;;;1.77;100.00
28626;BME280;18905;42.668;23.364;2023-03-12T04:35:59;94394.81;;;1.79;100.00
28626;BME280;18905;42.668;23.364;2023-03-12T04:38:25;94383.97;;;1.71;100.00
28626;BME280;18905;42.668;23.364;2023-03-12T04:41:03;94398.97;;;1.90;100.00
28626;BME280;18905;42.668;23.364;2023-03-12T04:43:29;94390.00;;;1.81;100.00
28626;BME280;18905;42.668;23.364;2023-03-12T04:45:56;94399.53;;;1.59;100.00
28626;BME280;18905;42.668;23.364;2023-03-12T04:48:22;94385.22;;;1.50;100.00
28626;BME280;18905;42.668;23.364;2023-03-12T04:50:48;94412.22;;;1.67;100.00
28626;BME280;18905;42.668;23.364;2023-03-12T04:53:13;94426.41;;;1.57;100.00
28626;BME280;18905;42.668;23.364;2023-03-12T04:55:38;94426.41;;;1.57;100.00
28626;BME280;18905;42.668;23.364;2023-03-12T04:58:04;94438.31;;;1.65;100.00
28626;BME280;18905;42.668;23.364;2023-03-12T05:00:29;94431.44;;;1.59;100.00
28626;BME280;18905;42.668;23.364;2023-03-12T05:02:55;94439.41;;;1.64;100.00
28626;BME280;18905;42.668;23.364;2023-03-12T05:05:20;94457.63;;;1.80;100.00
28626;BME280;18905;42.668;23.364;2023-03-12T05:07:45;94454.72;;;1.77;100.00
28626;BME280;18905;42.668;23.364;2023-03-12T05:10:11;94445.84;;;1.53;100.00
28626;BME280;18905;42.668;23.364;2023-03-12T05:12:36;94439.84;;;1.71;100.00
28626;BME280;18905;42.668;23.364;2023-03-12T05:15:02;94439.44;;;1.59;100.00
28626;BME280;18905;42.668;23.364;2023-03-12T05:17:28;94442.09;;;1.59;100.00
28626;BME280;18905;42.668;23.364;2023-03-12T05:19:53;94471.28;;;1.69;100.00
28626;BME280;18905;42.668;23.364;2023-03-12T05:22:19;94458.63;;;1.89;100.00
28626;BME280;18905;42.668;23.364;2023-03-12T05:24:44;94469.25;;;1.89;100.00
28626;BME280;18905;42.668;23.364;2023-03-12T05:27:10;94479.13;;;2.17;100.00
28626;BME280;18905;42.668;23.364;2023-03-12T05:29:36;94471.56;;;2.01;100.00
28626;BME280;18905;42.668;23.364;2023-03-12T05:32:02;94464.13;;;1.98;100.00
28626;BME280;18905;42.668;23.364;2023-03-12T05:34:27;94477.31;;;2.13;100.00
28626;BME280;18905;42.668;23.364;2023-03-12T05:36:55;94465.50;;;2.24;100.00
28626;BME280;18905;42.668;23.364;2023-03-12T05:39:21;94476.81;;;2.11;100.00
28626;BME280;18905;42.668;23.364;2023-03-12T05:41:47;94469.75;;;2.25;100.00
28626;BME280;18905;42.668;23.364;2023-03-12T05:44:12;94496.34;;;2.30;98.89
28626;BME280;18905;42.668;23.364;2023-03-12T05:46:41;94494.63;;;2.15;98.91
28626;BME280;18905;42.668;23.364;2023-03-12T05:49:07;94501.38;;;2.31;97.36
28626;BME280;18905;42.668;23.364;2023-03-12T05:51:33;94469.44;;;1.98;100.00
28626;BME280;18905;42.668;23.364;2023-03-12T05:53:58;94496.59;;;2.28;100.00
28626;BME280;18905;42.668;23.364;2023-03-12T05:56:24;94503.38;;;2.16;100.00
28626;BME280;18905;42.668;23.364;2023-03-12T05:58:49;94518.56;;;2.44;100.00
28626;BME280;18905;42.668;23.364;2023-03-12T06:01:20;94519.34;;;2.49;100.00
28626;BME280;18905;42.668;23.364;2023-03-12T06:03:46;94511.91;;;2.46;99.81
28626;BME280;18905;42.668;23.364;2023-03-12T06:06:12;94504.31;;;2.58;98.22
28626;BME280;18905;42.668;23.364;2023-03-12T06:08:38;94514.53;;;2.75;96.06
28626;BME280;18905;42.668;23.364;2023-03-12T06:11:04;94509.22;;;2.98;91.72
28626;BME280;18905;42.668;23.364;2023-03-12T06:13:29;94539.75;;;3.11;91.42
28626;BME280;18905;42.668;23.364;2023-03-12T06:16:00;94531.00;;;2.82;91.04
28626;BME280;18905;42.668;23.364;2023-03-12T06:18:27;94505.69;;;4.51;100.00
28626;BME280;18905;42.668;23.364;2023-03-12T06:20:52;94527.66;;;3.60;100.00
28626;BME280;18905;42.668;23.364;2023-03-12T06:23:18;94526.75;;;3.28;92.01
28626;BME280;18905;42.668;23.364;2023-03-12T06:25:44;94539.88;;;3.01;89.89
28626;BME280;18905;42.668;23.364;2023-03-12T06:28:09;94547.34;;;2.99;91.13
28626;BME280;18905;42.668;23.364;2023-03-12T06:30:35;94512.56;;;3.51;87.69
28626;BME280;18905;42.668;23.364;2023-03-12T06:33:00;94546.06;;;3.99;84.08
28626;BME280;18905;42.668;23.364;2023-03-12T06:35:28;94549.66;;;4.26;80.04
28626;BME280;18905;42.668;23.364;2023-03-12T06:37:53;94544.25;;;4.63;75.81
28626;BME280;18905;42.668;23.364;2023-03-12T06:40:19;94552.22;;;4.95;74.99
28626;BME280;18905;42.668;23.364;2023-03-12T06:42:44;94540.16;;;5.25;71.60
28626;BME280;18905;42.668;23.364;2023-03-12T06:45:10;94539.16;;;5.34;68.85
28626;BME280;18905;42.668;23.364;2023-03-12T06:47:35;94580.47;;;5.01;71.63
28626;BME280;18905;42.668;23.364;2023-03-12T06:50:01;94561.75;;;5.69;68.98
28626;BME280;18905;42.668;23.364;2023-03-12T06:52:26;94574.19;;;6.14;69.88
28626;BME280;18905;42.668;23.364;2023-03-12T06:54:51;94558.88;;;5.79;67.57
28626;BME280;18905;42.668;23.364;2023-03-12T06:57:17;94575.47;;;6.74;65.29
28626;BME280;18905;42.668;23.364;2023-03-12T06:59:42;94590.16;;;6.19;61.66
28626;BME280;18905;42.668;23.364;2023-03-12T07:02:10;94589.63;;;5.68;66.01
28626;BME280;18905;42.668;23.364;2023-03-12T07:04:35;94572.88;;;5.76;62.17
28626;BME280;18905;42.668;23.364;2023-03-12T07:07:01;94558.28;;;5.55;63.52
28626;BME280;18905;42.668;23.364;2023-03-12T07:09:26;94597.50;;;6.27;60.50
28626;BME280;18905;42.668;23.364;2023-03-12T07:11:51;94582.09;;;5.70;58.66
28626;BME280;18905;42.668;23.364;2023-03-12T07:14:17;94587.53;;;6.41;58.10
28626;BME280;18905;42.668;23.364;2023-03-12T07:16:44;94601.09;;;7.32;56.83
28626;BME280;18905;42.668;23.364;2023-03-12T07:19:09;94604.94;;;7.18;53.32
28626;BME280;18905;42.668;23.364;2023-03-12T07:21:35;94596.56;;;6.09;56.50
28626;BME280;18905;42.668;23.364;2023-03-12T07:24:00;94596.41;;;6.63;55.99
28626;BME280;18905;42.668;23.364;2023-03-12T07:26:31;94616.56;;;7.05;54.76
28626;BME280;18905;42.668;23.364;2023-03-12T07:28:56;94623.47;;;7.28;54.64
28626;BME280;18905;42.668;23.364;2023-03-12T07:31:21;94625.78;;;6.68;53.96
28626;BME280;18905;42.668;23.364;2023-03-12T07:33:47;94628.03;;;5.77;56.26
28626;BME280;18905;42.668;23.364;2023-03-12T07:36:12;94626.97;;;5.19;58.07
28626;BME280;18905;42.668;23.364;2023-03-12T07:38:38;94635.84;;;6.63;57.19
28626;BME280;18905;42.668;23.364;2023-03-12T07:41:03;94619.47;;;7.39;54.37
28626;BME280;18905;42.668;23.364;2023-03-12T07:43:29;94635.78;;;6.98;53.38
28626;BME280;18905;42.668;23.364;2023-03-12T07:45:54;94635.34;;;6.83;54.44
28626;BME280;18905;42.668;23.364;2023-03-12T07:48:20;94612.00;;;6.26;53.93
28626;BME280;18905;42.668;23.364;2023-03-12T07:50:45;94641.03;;;6.10;54.74
28626;BME280;18905;42.668;23.364;2023-03-12T07:53:11;94640.00;;;6.91;54.20
28626;BME280;18905;42.668;23.364;2023-03-12T07:55:36;94643.28;;;8.18;51.76
28626;BME280;18905;42.668;23.364;2023-03-12T07:58:02;94643.91;;;7.68;50.64
28626;BME280;18905;42.668;23.364;2023-03-12T08:00:28;94647.06;;;8.00;51.12
28626;BME280;18905;42.668;23.364;2023-03-12T08:02:54;94648.63;;;7.32;53.01
28626;BME280;18905;42.668;23.364;2023-03-12T08:05:20;94652.91;;;8.02;52.17
28626;BME280;18905;42.668;23.364;2023-03-12T08:07:51;94647.75;;;7.14;52.11
28626;BME280;18905;42.668;23.364;2023-03-12T08:10:17;94633.41;;;8.53;50.46
28626;BME280;18905;42.668;23.364;2023-03-12T08:12:42;94663.75;;;8.36;48.58
28626;BME280;18905;42.668;23.364;2023-03-12T08:15:09;94675.56;;;5.98;51.42
28626;BME280;18905;42.668;23.364;2023-03-12T08:17:37;94681.94;;;5.89;54.25
28626;BME280;18905;42.668;23.364;2023-03-12T08:20:03;94677.41;;;6.38;54.32
28626;BME280;18905;42.668;23.364;2023-03-12T08:22:30;94682.81;;;7.18;52.86
28626;BME280;18905;42.668;23.364;2023-03-12T08:24:55;94662.03;;;6.30;52.59
28626;BME280;18905;42.668;23.364;2023-03-12T08:27:20;94677.13;;;6.26;53.39
28626;BME280;18905;42.668;23.364;2023-03-12T08:29:46;94699.13;;;6.64;52.59
28626;BME280;18905;42.668;23.364;2023-03-12T08:32:11;94669.78;;;6.45;52.42
28626;BME280;18905;42.668;23.364;2023-03-12T08:34:38;94699.59;;;6.03;53.28
28626;BME280;18905;42.668;23.364;2023-03-12T08:37:04;94700.75;;;6.38;53.68
28626;BME280;18905;42.668;23.364;2023-03-12T08:39:30;94697.22;;;7.44;52.75
28626;BME280;18905;42.668;23.364;2023-03-12T08:41:56;94678.97;;;7.32;51.34
28626;BME280;18905;42.668;23.364;2023-03-12T08:44:22;94712.53;;;7.43;50.69
28626;BME280;18905;42.668;23.364;2023-03-12T08:46:47;94725.66;;;7.45;51.35
28626;BME280;18905;42.668;23.364;2023-03-12T08:49:13;94661.44;;;6.69;51.50
28626;BME280;18905;42.668;23.364;2023-03-12T08:51:38;94675.88;;;6.95;52.07
28626;BME280;18905;42.668;23.364;2023-03-12T08:54:04;94711.25;;;7.19;51.34
28626;BME280;18905;42.668;23.364;2023-03-12T08:56:30;94681.25;;;7.17;50.87
28626;BME280;18905;42.668;23.364;2023-03-12T08:58:57;94707.78;;;7.18;50.64
28626;BME280;18905;42.668;23.364;2023-03-12T09:01:23;94718.69;;;7.44;50.66
28626;BME280;18905;42.668;23.364;2023-03-12T09:03:48;94690.56;;;7.41;51.03
28626;BME280;18905;42.668;23.364;2023-03-12T09:06:15;94710.16;;;6.98;52.18
28626;BME280;18905;42.668;23.364;2023-03-12T09:08:41;94713.25;;;7.57;51.00
28626;BME280;18905;42.668;23.364;2023-03-12T09:11:08;94712.59;;;8.77;48.68
28626;BME280;18905;42.668;23.364;2023-03-12T09:13:34;94691.22;;;7.25;50.49
28626;BME280;18905;42.668;23.364;2023-03-12T09:16:00;94729.91;;;6.66;51.28
28626;BME280;18905;42.668;23.364;2023-03-12T09:18:27;94690.72;;;7.67;51.82
28626;BME280;18905;42.668;23.364;2023-03-12T09:20:53;94724.13;;;7.30;50.84
28626;BME280;18905;42.668;23.364;2023-03-12T09:23:18;94698.47;;;8.16;50.72
28626;BME280;18905;42.668;23.364;2023-03-12T09:25:45;94693.44;;;7.01;51.81
28626;BME280;18905;42.668;23.364;2023-03-12T09:28:10;94707.53;;;7.50;51.87
28626;BME280;18905;42.668;23.364;2023-03-12T09:30:36;94718.59;;;6.69;53.05
28626;BME280;18905;42.668;23.364;2023-03-12T09:33:02;94712.19;;;8.36;54.01
28626;BME280;18905;42.668;23.364;2023-03-12T09:35:27;94683.38;;;7.98;51.89
28626;BME280;18905;42.668;23.364;2023-03-12T09:37:52;94701.09;;;7.60;50.08
28626;BME280;18905;42.668;23.364;2023-03-12T09:40:21;94709.94;;;7.91;51.01
28626;BME280;18905;42.668;23.364;2023-03-12T09:42:59;94716.34;;;8.59;49.17
28626;BME280;18905;42.668;23.364;2023-03-12T09:45:29;94706.06;;;12.59;100.00
28626;BME280;18905;42.668;23.364;2023-03-12T09:48:00;94693.22;;;9.69;55.19
28626;BME280;18905;42.668;23.364;2023-03-12T09:50:38;94710.59;;;11.33;51.77
28626;BME280;18905;42.668;23.364;2023-03-12T09:55:44;94672.13;;;10.95;49.01
28626;BME280;18905;42.668;23.364;2023-03-12T09:58:13;94716.56;;;12.61;47.92
28626;BME280;18905;42.668;23.364;2023-03-12T10:00:41;94712.84;;;11.11;44.31
28626;BME280;18905;42.668;23.364;2023-03-12T10:03:14;94712.00;;;9.23;45.58
28626;BME280;18905;42.668;23.364;2023-03-12T10:16:34;94689.16;;;9.12;48.32
28626;BME280;18905;42.668;23.364;2023-03-12T10:19:27;94701.53;;;9.21;47.65
28626;BME280;18905;42.668;23.364;2023-03-12T10:27:11;94656.97;;;8.30;45.61
28626;BME280;18905;42.668;23.364;2023-03-12T10:29:40;94699.63;;;9.22;45.66
28626;BME280;18905;42.668;23.364;2023-03-12T10:37:22;94695.69;;;9.19;46.72
28626;BME280;18905;42.668;23.364;2023-03-12T10:39:50;94687.56;;;9.36;44.77
28626;BME280;18905;42.668;23.364;2023-03-12T10:42:19;94705.94;;;8.58;46.15
28626;BME280;18905;42.668;23.364;2023-03-12T10:44:52;94702.94;;;8.85;46.18
28626;BME280;18905;42.668;23.364;2023-03-12T10:47:33;94719.59;;;8.87;47.16
28626;BME280;18905;42.668;23.364;2023-03-12T10:50:14;94701.34;;;9.35;45.79
28626;BME280;18905;42.668;23.364;2023-03-12T10:52:41;94703.47;;;9.84;46.56
28626;BME280;18905;42.668;23.364;2023-03-12T10:55:27;94684.22;;;10.40;45.51
28626;BME280;18905;42.668;23.364;2023-03-12T10:57:57;94695.22;;;9.09;46.03
28626;BME280;18905;42.668;23.364;2023-03-12T11:00:26;94698.97;;;9.59;44.49
28626;BME280;18905;42.668;23.364;2023-03-12T11:03:05;94690.84;;;10.51;43.12
28626;BME280;18905;42.668;23.364;2023-03-12T11:07:57;94674.56;;;9.30;46.21
28626;BME280;18905;42.668;23.364;2023-03-12T11:10:42;94675.47;;;9.68;44.91
28626;BME280;18905;42.668;23.364;2023-03-12T11:13:21;94693.41;;;10.01;43.03
28626;BME280;18905;42.668;23.364;2023-03-12T11:15:47;94673.81;;;10.59;42.30
28626;BME280;18905;42.668;23.364;2023-03-12T11:18:33;94694.31;;;9.76;43.88
28626;BME280;18905;42.668;23.364;2023-03-12T11:23:36;94663.19;;;8.65;45.74
28626;BME280;18905;42.668;23.364;2023-03-12T11:28:40;94685.97;;;9.44;45.49
28626;BME280;18905;42.668;23.364;2023-03-12T11:31:19;94671.91;;;8.96;47.16
28626;BME280;18905;42.668;23.364;2023-03-12T11:33:46;94687.72;;;9.31;46.89
28626;BME280;18905;42.668;23.364;2023-03-12T11:44:51;94680.94;;;9.00;44.86
28626;BME280;18905;42.668;23.364;2023-03-12T11:55:45;94672.56;;;8.76;44.89
28626;BME280;18905;42.668;23.364;2023-03-12T12:09:12;94676.56;;;10.21;44.11
28626;BME280;18905;42.668;23.364;2023-03-12T12:15:09;94679.34;;;9.87;42.48
28626;BME280;18905;42.668;23.364;2023-03-12T12:29:01;94687.16;;;7.88;46.12
28626;BME280;18905;42.668;23.364;2023-03-12T12:36:47;94672.38;;;9.15;45.30
28626;BME280;18905;42.668;23.364;2023-03-12T12:41:55;94659.06;;;9.10;45.97
28626;BME280;18905;42.668;23.364;2023-03-12T12:44:35;94673.00;;;8.61;47.13
28626;BME280;18905;42.668;23.364;2023-03-12T12:47:04;94651.00;;;9.01;46.98
28626;BME280;18905;42.668;23.364;2023-03-12T12:49:47;94660.31;;;9.21;45.99
28626;BME280;18905;42.668;23.364;2023-03-12T12:52:17;94652.38;;;9.33;46.66
28626;BME280;18905;42.668;23.364;2023-03-12T12:57:24;94654.94;;;9.21;45.99
28626;BME280;18905;42.668;23.364;2023-03-12T13:00:13;94680.69;;;9.73;45.18
28626;BME280;18905;42.668;23.364;2023-03-12T13:02:44;94679.09;;;9.72;45.08
28626;BME280;18905;42.668;23.364;2023-03-12T13:05:25;94678.41;;;9.20;44.64
28626;BME280;18905;42.668;23.364;2023-03-12T13:07:51;94675.53;;;8.83;46.53
28626;BME280;18905;42.668;23.364;2023-03-12T13:12:57;94657.19;;;8.68;47.18
28626;BME280;18905;42.668;23.364;2023-03-12T13:20:29;94675.88;;;7.78;48.11
28626;BME280;18905;42.668;23.364;2023-03-12T13:23:02;94686.34;;;7.88;49.17
28626;BME280;18905;42.668;23.364;2023-03-12T13:26:24;94660.75;;;7.51;49.14
28626;BME280;18905;42.668;23.364;2023-03-12T13:33:50;94699.59;;;8.62;47.47
28626;BME280;18905;42.668;23.364;2023-03-12T13:41:38;94710.09;;;7.86;48.45
28626;BME280;18905;42.668;23.364;2023-03-12T13:44:28;94702.38;;;8.32;49.76
28626;BME280;18905;42.668;23.364;2023-03-12T13:57:44;94693.03;;;9.74;86.54
28626;BME280;18905;42.668;23.364;2023-03-12T14:00:25;94700.19;;;11.03;92.98
28626;BME280;18905;42.668;23.364;2023-03-12T14:02:58;94699.53;;;11.06;57.28
28626;BME280;18905;42.668;23.364;2023-03-12T14:05:26;94706.25;;;13.26;66.26
28626;BME280;18905;42.668;23.364;2023-03-12T14:16:41;94694.34;;;12.79;66.17
28626;BME280;18905;42.668;23.364;2023-03-12T14:19:15;94702.59;;;14.32;53.37
28626;BME280;18905;42.668;23.364;2023-03-12T14:21:43;94703.91;;;12.89;41.32
28626;BME280;18905;42.668;23.364;2023-03-12T14:24:23;94700.34;;;10.57;43.11
28626;BME280;18905;42.668;23.364;2023-03-12T14:26:50;94706.06;;;10.55;44.08
28626;BME280;18905;42.668;23.364;2023-03-12T14:29:25;94703.06;;;9.65;45.13
28626;BME280;18905;42.668;23.364;2023-03-12T14:31:55;94714.78;;;9.69;45.62
28626;BME280;18905;42.668;23.364;2023-03-12T14:34:23;94710.22;;;9.18;46.71
28626;BME280;18905;42.668;23.364;2023-03-12T14:37:01;94723.09;;;9.13;46.83
28626;BME280;18905;42.668;23.364;2023-03-12T14:39:48;94705.63;;;8.68;47.33
28626;BME280;18905;42.668;23.364;2023-03-12T14:42:31;94721.50;;;9.29;46.86
28626;BME280;18905;42.668;23.364;2023-03-12T14:47:38;94697.66;;;8.54;48.03
28626;BME280;18905;42.668;23.364;2023-03-12T14:50:05;94727.94;;;8.60;47.67
28626;BME280;18905;42.668;23.364;2023-03-12T14:52:30;94720.53;;;8.91;53.57
28626;BME280;18905;42.668;23.364;2023-03-12T14:55:06;94719.38;;;8.58;48.04
28626;BME280;18905;42.668;23.364;2023-03-12T14:57:33;94741.50;;;8.16;49.28
28626;BME280;18905;42.668;23.364;2023-03-12T15:00:00;94718.25;;;8.11;49.28
28626;BME280;18905;42.668;23.364;2023-03-12T15:02:27;94727.59;;;8.14;48.81
28626;BME280;18905;42.668;23.364;2023-03-12T15:04:56;94730.69;;;7.99;47.78
28626;BME280;18905;42.668;23.364;2023-03-12T15:07:30;94727.59;;;8.14;48.78
28626;BME280;18905;42.668;23.364;2023-03-12T15:09:56;94715.06;;;8.40;47.93
28626;BME280;18905;42.668;23.364;2023-03-12T15:12:30;94733.09;;;8.39;48.39
28626;BME280;18905;42.668;23.364;2023-03-12T15:15:05;94739.25;;;8.01;49.49